Time;durP1;ratioP1;P1;durP2;ratioP2;P2;SDS_P1;SDS_P2;PMS_P1;PMS_P2;Temp;Humidity;BMP_temperature;BMP_pressure;BME280_temperature;BME280_humidity;BME280_pressure;Samples;Min_cycle;Max_cycle;Signal;HPM_P1;HPM_P2
2022/04/24 00:01:27;;;;;;;12.48;8.27;;;9.00;99.90;;;;;;4965472;28;20560;-59
2022/04/24 00:03:54;;;;;;;10.15;7.88;;;9.00;99.90;;;;;;4963542;28;20070;-58
2022/04/24 00:06:20;;;;;;;13.68;9.13;;;9.00;99.90;;;;;;4961817;28;20038;-60
2022/04/24 00:08:46;;;;;;;10.57;8.68;;;8.90;99.90;;;;;;4971793;28;20045;-59
2022/04/24 00:11:12;;;;;;;12.55;9.40;;;8.90;99.90;;;;;;4983485;28;20630;-58
2022/04/24 00:13:40;;;;;;;11.02;9.52;;;8.80;99.90;;;;;;4958753;28;20050;-59
2022/04/24 00:16:06;;;;;;;12.10;8.35;;;8.70;99.90;;;;;;4971173;28;20501;-59
2022/04/24 00:18:32;;;;;;;10.90;8.80;;;8.70;99.90;;;;;;4967857;28;20128;-59
2022/04/24 00:20:59;;;;;;;11.27;9.15;;;8.70;99.90;;;;;;4986753;28;20068;-59
2022/04/24 00:23:24;;;;;;;11.52;9.15;;;8.60;99.90;;;;;;4969350;28;20060;-60
2022/04/24 00:25:50;;;;;;;16.25;9.15;;;8.60;99.90;;;;;;4969804;28;20046;-61
2022/04/24 00:28:16;;;;;;;11.80;9.18;;;8.50;99.90;;;;;;4940302;28;20049;-58
2022/04/24 00:30:42;;;;;;;11.70;8.85;;;8.40;99.90;;;;;;4988514;28;20097;-61
2022/04/24 00:33:07;;;;;;;14.07;9.77;;;8.50;99.90;;;;;;4972081;28;20073;-59
2022/04/24 00:35:34;;;;;;;11.32;8.77;;;8.40;99.90;;;;;;4988164;28;20075;-57
2022/04/24 00:37:59;;;;;;;11.95;9.10;;;8.40;99.90;;;;;;4964711;28;20145;-59
2022/04/24 00:40:25;;;;;;;11.15;9.02;;;8.30;99.90;;;;;;4970325;28;20093;-59
2022/04/24 00:42:51;;;;;;;11.77;9.05;;;8.30;99.90;;;;;;4974543;28;20038;-59
2022/04/24 00:45:17;;;;;;;10.77;8.88;;;8.30;99.90;;;;;;4981720;28;20045;-61
2022/04/24 00:47:43;;;;;;;10.27;8.77;;;8.20;99.90;;;;;;4971875;28;20136;-58
2022/04/24 00:50:09;;;;;;;11.93;9.15;;;8.20;99.90;;;;;;4967217;28;24163;-58
2022/04/24 00:52:37;;;;;;;13.73;9.18;;;8.10;99.90;;;;;;4986963;28;20061;-60
2022/04/24 00:55:03;;;;;;;12.35;9.00;;;8.10;99.90;;;;;;4939001;28;20049;-59
2022/04/24 00:57:29;;;;;;;10.10;9.00;;;8.10;99.90;;;;;;4989371;28;20683;-57
2022/04/24 00:59:55;;;;;;;13.68;9.15;;;8.10;99.90;;;;;;4956878;28;20056;-58
2022/04/24 01:02:21;;;;;;;13.88;8.95;;;8.10;99.90;;;;;;4959956;28;20288;-60
2022/04/24 01:04:47;;;;;;;10.88;8.55;;;8.10;99.90;;;;;;4978864;28;20056;-58
2022/04/24 01:07:13;;;;;;;11.70;8.85;;;8.00;99.90;;;;;;4991140;28;20056;-58
2022/04/24 01:09:40;;;;;;;14.32;8.95;;;8.00;99.90;;;;;;4985185;28;21047;-59
2022/04/24 01:12:06;;;;;;;10.57;8.90;;;8.10;99.90;;;;;;4984759;28;20038;-59
2022/04/24 01:14:33;;;;;;;11.98;9.30;;;8.00;99.90;;;;;;4986644;28;20437;-58
2022/04/24 01:17:01;;;;;;;10.85;9.00;;;8.00;99.90;;;;;;4988360;28;20049;-59
2022/04/24 01:19:28;;;;;;;12.95;9.93;;;7.90;99.90;;;;;;4982469;28;20878;-58
2022/04/24 01:21:54;;;;;;;11.15;9.65;;;7.90;99.90;;;;;;4965014;28;20188;-59
2022/04/24 01:24:23;;;;;;;13.60;8.82;;;7.90;99.90;;;;;;4964291;28;20078;-59
2022/04/24 01:26:50;;;;;;;11.75;9.35;;;7.80;99.90;;;;;;4970872;28;20085;-58
2022/04/24 01:29:16;;;;;;;12.20;9.00;;;7.80;99.90;;;;;;4953035;28;20449;-59
2022/04/24 01:31:48;;;;;;;13.40;10.07;;;7.80;99.90;;;;;;4969953;28;20062;-59
2022/04/24 01:34:14;;;;;;;12.33;9.53;;;7.70;99.90;;;;;;4966386;28;20793;-60
2022/04/24 01:36:40;;;;;;;11.25;9.27;;;7.70;99.90;;;;;;4962350;28;20054;-58
2022/04/24 01:39:07;;;;;;;14.40;9.60;;;7.70;99.90;;;;;;4962452;28;20054;-58
2022/04/24 01:41:34;;;;;;;10.75;9.15;;;7.70;99.90;;;;;;4966813;28;20038;-60
2022/04/24 01:44:00;;;;;;;15.20;9.98;;;7.60;99.90;;;;;;4980736;28;20163;-58
2022/04/24 01:46:25;;;;;;;12.98;9.70;;;7.60;99.90;;;;;;4967105;28;20133;-59
2022/04/24 01:48:51;;;;;;;17.73;9.52;;;7.60;99.90;;;;;;4959880;28;20046;-61
2022/04/24 01:51:18;;;;;;;16.13;10.48;;;7.50;99.90;;;;;;4966696;28;20905;-59
2022/04/24 01:53:44;;;;;;;13.40;9.38;;;7.40;99.90;;;;;;4968860;28;20043;-58
2022/04/24 01:56:11;;;;;;;11.20;9.43;;;7.50;99.90;;;;;;4967251;28;20042;-58
2022/04/24 01:58:37;;;;;;;11.77;9.63;;;7.50;99.90;;;;;;4964567;28;20047;-61
2022/04/24 02:01:04;;;;;;;11.90;9.63;;;7.40;99.90;;;;;;4967448;28;20160;-59
2022/04/24 02:03:31;;;;;;;14.10;10.00;;;7.40;99.90;;;;;;4981446;28;20046;-59
2022/04/24 02:05:57;;;;;;;13.13;10.07;;;7.40;99.90;;;;;;4968792;28;20046;-58
2022/04/24 02:08:24;;;;;;;15.98;9.85;;;7.40;99.90;;;;;;4967125;28;20113;-58
2022/04/24 02:10:51;;;;;;;11.52;9.85;;;7.40;99.90;;;;;;4949160;28;20046;-58
2022/04/24 02:13:17;;;;;;;12.60;10.00;;;7.40;99.90;;;;;;4965574;28;20083;-58
2022/04/24 02:15:43;;;;;;;11.18;9.07;;;7.40;99.90;;;;;;4966583;28;20131;-58
2022/04/24 02:18:09;;;;;;;11.95;9.68;;;7.40;99.90;;;;;;4965285;28;20915;-61
2022/04/24 02:20:35;;;;;;;10.52;9.18;;;7.50;99.90;;;;;;4982279;28;20492;-58
2022/04/24 02:23:01;;;;;;;13.88;10.25;;;7.40;99.90;;;;;;4980693;28;20066;-58
2022/04/24 02:25:28;;;;;;;11.32;9.07;;;7.40;99.90;;;;;;4964517;28;20050;-59
2022/04/24 02:27:55;;;;;;;11.85;9.52;;;7.40;99.90;;;;;;4965140;28;20050;-59
2022/04/24 02:30:23;;;;;;;10.30;8.80;;;7.40;99.90;;;;;;4971559;28;20054;-58
2022/04/24 02:32:49;;;;;;;10.93;9.60;;;7.40;99.90;;;;;;4986632;28;20043;-58
2022/04/24 02:35:16;;;;;;;11.77;9.55;;;7.50;99.90;;;;;;4964653;28;20077;-58
2022/04/24 02:37:42;;;;;;;12.43;9.50;;;7.40;99.90;;;;;;4985885;28;20148;-60
2022/04/24 02:40:09;;;;;;;12.48;9.45;;;7.50;99.90;;;;;;4963605;28;20075;-58
2022/04/24 02:42:36;;;;;;;11.48;9.05;;;7.40;99.90;;;;;;4953561;28;20046;-58
2022/04/24 02:45:09;;;;;;;14.60;9.45;;;7.40;99.90;;;;;;4975306;28;24504;-58
2022/04/24 02:47:38;;;;;;;12.93;10.07;;;7.40;99.90;;;;;;4950425;28;20846;-59
2022/04/24 02:50:04;;;;;;;13.70;9.82;;;7.40;99.90;;;;;;4967730;28;20053;-59
2022/04/24 02:52:30;;;;;;;11.98;10.02;;;7.30;99.90;;;;;;4982267;28;21283;-60
2022/04/24 02:54:56;;;;;;;11.13;9.90;;;7.30;99.90;;;;;;4962194;28;20050;-60
2022/04/24 02:57:22;;;;;;;12.27;8.90;;;7.30;99.90;;;;;;4986247;28;20089;-58
2022/04/24 02:59:49;;;;;;;13.52;9.93;;;7.30;99.90;;;;;;4987456;28;20453;-59
2022/04/24 03:02:18;;;;;;;15.57;9.85;;;7.30;99.90;;;;;;4984816;28;20049;-59
2022/04/24 03:04:45;;;;;;;13.00;9.38;;;7.20;99.90;;;;;;4986156;28;20060;-60
2022/04/24 03:07:11;;;;;;;11.10;9.10;;;7.20;99.90;;;;;;4985765;28;20574;-58
2022/04/24 03:09:37;;;;;;;13.05;9.95;;;7.20;99.90;;;;;;4969591;28;20516;-59
2022/04/24 03:12:03;;;;;;;11.20;8.70;;;7.20;99.90;;;;;;4936206;28;20054;-60
2022/04/24 03:14:29;;;;;;;12.30;9.50;;;7.20;99.90;;;;;;4984922;28;20543;-58
2022/04/24 03:16:55;;;;;;;11.18;9.20;;;7.20;99.90;;;;;;4983829;28;20034;-61
2022/04/24 03:19:21;;;;;;;15.02;8.93;;;7.20;99.90;;;;;;4969974;28;20064;-59
2022/04/24 03:21:47;;;;;;;10.98;8.70;;;7.20;99.90;;;;;;4964598;28;20046;-59
2022/04/24 03:24:13;;;;;;;10.75;8.60;;;7.20;99.90;;;;;;4964295;28;20046;-60
2022/04/24 03:26:39;;;;;;;11.57;9.48;;;7.20;99.90;;;;;;4967158;28;20093;-59
2022/04/24 03:29:04;;;;;;;16.48;9.35;;;7.20;99.90;;;;;;4975785;28;20153;-58
2022/04/24 03:31:30;;;;;;;12.15;9.25;;;7.20;99.90;;;;;;4969517;28;21619;-59
2022/04/24 03:33:56;;;;;;;13.77;9.48;;;7.20;99.90;;;;;;4956895;28;20198;-58
2022/04/24 03:36:22;;;;;;;10.48;8.75;;;7.10;99.90;;;;;;4989673;28;20046;-58
2022/04/24 03:38:48;;;;;;;11.88;9.20;;;7.10;99.90;;;;;;4970125;28;20492;-58
2022/04/24 03:41:13;;;;;;;13.35;9.32;;;7.00;99.90;;;;;;4988052;28;20049;-58
2022/04/24 03:43:39;;;;;;;15.18;9.30;;;7.00;99.90;;;;;;4967002;28;20140;-58
2022/04/24 03:46:06;;;;;;;11.50;9.32;;;7.00;99.90;;;;;;4990166;28;20042;-59
2022/04/24 03:48:32;;;;;;;11.32;9.05;;;7.00;99.90;;;;;;4974057;28;20385;-59
2022/04/24 03:50:58;;;;;;;12.88;9.32;;;6.90;99.90;;;;;;4963028;28;20054;-59
2022/04/24 03:53:24;;;;;;;13.13;9.35;;;7.00;99.90;;;;;;4959220;28;20038;-58
2022/04/24 03:55:50;;;;;;;17.13;9.30;;;6.90;99.90;;;;;;4958823;28;20038;-58
2022/04/24 03:58:16;;;;;;;12.02;9.13;;;6.90;99.90;;;;;;4976264;28;20053;-58
2022/04/24 04:00:41;;;;;;;10.38;8.73;;;7.00;99.90;;;;;;4993132;28;20119;-60
2022/04/24 04:03:08;;;;;;;13.30;9.68;;;6.90;99.90;;;;;;4973346;28;20097;-59
2022/04/24 04:05:37;;;;;;;13.05;8.90;;;7.00;99.90;;;;;;4953895;28;20405;-60
2022/04/24 04:08:04;;;;;;;13.95;9.70;;;6.80;99.90;;;;;;4991660;28;20165;-59
2022/04/24 04:10:31;;;;;;;11.18;8.43;;;6.90;99.90;;;;;;4982484;28;20050;-58
2022/04/24 04:12:57;;;;;;;13.13;8.65;;;6.90;99.90;;;;;;4992973;28;20133;-58
2022/04/24 04:15:23;;;;;;;14.90;9.52;;;6.90;99.90;;;;;;4972101;28;20081;-60
2022/04/24 04:17:49;;;;;;;12.07;9.23;;;6.90;99.90;;;;;;4992616;28;20046;-59
2022/04/24 04:20:14;;;;;;;12.48;9.00;;;6.80;99.90;;;;;;4992215;28;20050;-59
2022/04/24 04:22:50;;;;;;;13.85;9.32;;;6.90;99.90;;;;;;4954415;28;20050;-59
2022/04/24 04:25:16;;;;;;;15.18;9.43;;;6.80;99.90;;;;;;4976674;28;20054;-58
2022/04/24 04:27:42;;;;;;;13.55;10.20;;;6.80;99.90;;;;;;4976000;28;20054;-59
2022/04/24 04:30:09;;;;;;;15.60;10.30;;;6.80;99.90;;;;;;4970378;28;20081;-60
2022/04/24 04:32:35;;;;;;;15.48;9.98;;;6.80;99.90;;;;;;4976228;28;20073;-59
2022/04/24 04:35:04;;;;;;;17.45;10.60;;;6.80;99.90;;;;;;4990922;28;20046;-60
2022/04/24 04:37:31;;;;;;;13.52;9.88;;;6.80;99.90;;;;;;4991233;28;20038;-59
2022/04/24 04:39:58;;;;;;;13.95;9.98;;;6.80;99.90;;;;;;4993047;28;20447;-60
2022/04/24 04:42:23;;;;;;;19.60;10.77;;;6.80;99.90;;;;;;4988511;28;20396;-59
2022/04/24 04:44:49;;;;;;;15.18;10.30;;;6.80;99.90;;;;;;4969383;28;20054;-58
2022/04/24 04:47:15;;;;;;;17.40;10.50;;;6.80;99.90;;;;;;4987887;28;20373;-60
2022/04/24 04:49:41;;;;;;;15.00;10.60;;;6.80;99.90;;;;;;4991589;28;20136;-58
2022/04/24 04:52:07;;;;;;;16.60;10.43;;;6.80;99.90;;;;;;4978094;28;20046;-59
2022/04/24 04:54:34;;;;;;;15.85;11.23;;;6.90;99.90;;;;;;4969361;28;20128;-57
2022/04/24 04:57:00;;;;;;;16.67;11.20;;;6.90;99.90;;;;;;4972486;28;20095;-59
2022/04/24 04:59:26;;;;;;;18.27;11.10;;;6.90;99.90;;;;;;4968982;28;20496;-58
2022/04/24 05:01:51;;;;;;;20.42;11.25;;;7.00;99.90;;;;;;4987065;28;20087;-57
2022/04/24 05:04:17;;;;;;;15.32;10.73;;;6.90;99.90;;;;;;4988806;28;20072;-60
2022/04/24 05:06:43;;;;;;;19.88;11.18;;;6.90;99.90;;;;;;4976407;28;20141;-58
2022/04/24 05:09:09;;;;;;;17.13;11.75;;;6.90;99.90;;;;;;4971458;28;20156;-58
2022/04/24 05:11:35;;;;;;;16.42;11.48;;;6.90;99.90;;;;;;4974044;28;20045;-58
2022/04/24 05:14:01;;;;;;;16.30;10.75;;;6.90;99.90;;;;;;4965031;28;20050;-60
2022/04/24 05:16:26;;;;;;;16.85;11.20;;;6.90;99.90;;;;;;4972043;28;20054;-60
2022/04/24 05:18:52;;;;;;;18.20;11.30;;;7.00;99.90;;;;;;4976691;28;20045;-59
2022/04/24 05:21:18;;;;;;;16.42;11.80;;;7.00;99.90;;;;;;4963866;28;20109;-60
2022/04/24 05:23:46;;;;;;;16.70;11.85;;;6.90;99.90;;;;;;4973441;28;20136;-58
2022/04/24 05:26:14;;;;;;;16.83;11.43;;;7.00;99.90;;;;;;4990704;28;20081;-60
2022/04/24 05:28:40;;;;;;;18.50;10.73;;;7.10;99.90;;;;;;4955951;28;20542;-57
2022/04/24 05:31:06;;;;;;;17.48;11.07;;;7.10;99.90;;;;;;4970238;28;20058;-60
2022/04/24 05:33:32;;;;;;;17.65;10.38;;;7.10;99.90;;;;;;4967030;28;20045;-60
2022/04/24 05:35:58;;;;;;;15.48;11.00;;;7.20;99.90;;;;;;4990390;28;20050;-58
2022/04/24 05:38:24;;;;;;;19.45;10.93;;;7.20;99.90;;;;;;4988131;28;20042;-60
2022/04/24 05:40:50;;;;;;;18.38;10.50;;;7.20;99.90;;;;;;4966456;28;20053;-60
2022/04/24 05:43:15;;;;;;;15.95;10.60;;;7.20;99.90;;;;;;4969032;28;20046;-58
2022/04/24 05:45:41;;;;;;;16.17;10.88;;;7.30;99.90;;;;;;4971233;28;20246;-59
2022/04/24 05:48:08;;;;;;;18.48;10.45;;;7.30;99.90;;;;;;4990257;28;20113;-57
2022/04/24 05:50:33;;;;;;;14.23;10.00;;;7.30;99.90;;;;;;4987598;28;20049;-59
2022/04/24 05:53:00;;;;;;;18.13;10.40;;;7.40;99.90;;;;;;4990858;28;20092;-59
2022/04/24 05:55:26;;;;;;;14.68;10.65;;;7.50;99.90;;;;;;4987954;28;20424;-58
2022/04/24 05:57:53;;;;;;;15.50;10.15;;;7.50;99.90;;;;;;4972055;28;20054;-58
2022/04/24 06:00:20;;;;;;;16.10;10.18;;;7.60;99.90;;;;;;4989487;28;20050;-57
2022/04/24 06:02:46;;;;;;;15.20;9.07;;;7.70;99.90;;;;;;4964790;28;20050;-58
2022/04/24 06:05:12;;;;;;;13.95;8.93;;;7.80;99.90;;;;;;4989549;28;20661;-59
2022/04/24 06:07:40;;;;;;;12.23;8.50;;;7.80;99.90;;;;;;4964821;28;20050;-57
2022/04/24 06:10:07;;;;;;;14.07;7.95;;;7.90;99.90;;;;;;4988919;28;20496;-59
2022/04/24 06:12:47;;;;;;;11.90;8.40;;;8.00;99.90;;;;;;4991049;28;20046;-57
2022/04/24 06:15:17;;;;;;;12.32;8.23;;;8.00;99.90;;;;;;4971545;28;20133;-58
2022/04/24 06:17:46;;;;;;;11.82;7.75;;;8.10;99.90;;;;;;4959407;28;20052;-58
2022/04/24 06:20:13;;;;;;;10.85;7.10;;;8.20;99.90;;;;;;4989615;28;20129;-60
2022/04/24 06:22:42;;;;;;;9.65;7.15;;;8.30;99.90;;;;;;4958094;28;20085;-58
2022/04/24 06:25:08;;;;;;;10.60;6.47;;;8.30;99.90;;;;;;4975104;28;20089;-58
2022/04/24 06:27:34;;;;;;;9.80;6.35;;;8.40;99.90;;;;;;4968784;28;20054;-59
2022/04/24 06:30:01;;;;;;;8.98;6.32;;;8.50;99.90;;;;;;4975175;28;20050;-60
2022/04/24 06:32:32;;;;;;;8.90;6.10;;;8.50;99.90;;;;;;4950899;28;20046;-58
2022/04/24 06:34:58;;;;;;;9.15;5.60;;;8.60;99.90;;;;;;4971996;28;20088;-58
2022/04/24 06:37:24;;;;;;;8.18;5.40;;;8.70;99.90;;;;;;4968750;28;20427;-58
2022/04/24 06:39:49;;;;;;;10.35;5.32;;;8.70;99.90;;;;;;4969376;28;20042;-59
2022/04/24 06:42:15;;;;;;;8.65;5.03;;;8.80;99.90;;;;;;4970268;28;20043;-59
2022/04/24 06:44:41;;;;;;;7.75;4.57;;;8.90;99.90;;;;;;4987440;28;20057;-60
2022/04/24 06:47:07;;;;;;;8.45;4.57;;;8.90;99.90;;;;;;4970706;28;20068;-57
2022/04/24 06:49:33;;;;;;;7.32;4.70;;;9.00;99.90;;;;;;4987305;28;20052;-58
2022/04/24 06:51:59;;;;;;;7.35;3.83;;;9.10;99.90;;;;;;4967811;28;20050;-57
2022/04/24 06:54:24;;;;;;;6.20;4.15;;;9.20;99.90;;;;;;4977303;28;20033;-58
2022/04/24 06:56:50;;;;;;;7.60;4.10;;;9.30;99.90;;;;;;4992031;28;20043;-58
2022/04/24 06:59:16;;;;;;;8.90;3.70;;;9.30;99.90;;;;;;4993554;28;20037;-62
2022/04/24 07:01:42;;;;;;;6.28;3.50;;;9.40;99.90;;;;;;4971978;28;20057;-61
2022/04/24 07:04:07;;;;;;;8.43;4.20;;;9.50;99.90;;;;;;4990435;28;20039;-59
2022/04/24 07:06:33;;;;;;;12.55;4.13;;;9.60;99.90;;;;;;4990041;28;20396;-60
2022/04/24 07:08:59;;;;;;;8.77;3.63;;;9.70;99.90;;;;;;4960362;28;20046;-58
2022/04/24 07:11:25;;;;;;;4.80;3.53;;;9.80;99.90;;;;;;4983008;28;20085;-58
2022/04/24 07:13:51;;;;;;;9.70;3.80;;;9.90;99.90;;;;;;4977462;28;20062;-59
2022/04/24 07:16:16;;;;;;;6.43;3.88;;;10.00;99.90;;;;;;4965055;28;20511;-60
2022/04/24 07:18:42;;;;;;;6.80;3.53;;;10.10;99.90;;;;;;4949207;28;20401;-58
2022/04/24 07:21:08;;;;;;;7.35;3.80;;;10.20;99.90;;;;;;4952669;28;20907;-60
2022/04/24 07:23:35;;;;;;;6.10;3.22;;;10.30;99.90;;;;;;4977136;28;20109;-58
2022/04/24 07:26:01;;;;;;;5.85;3.50;;;10.40;99.90;;;;;;4996019;28;20050;-60
2022/04/24 07:28:27;;;;;;;6.95;3.65;;;10.50;99.90;;;;;;4991748;28;20046;-58
2022/04/24 07:30:53;;;;;;;7.57;3.53;;;10.60;99.90;;;;;;4959105;28;20229;-60
2022/04/24 07:33:18;;;;;;;4.72;3.30;;;10.70;99.90;;;;;;4978320;28;20050;-58
2022/04/24 07:35:44;;;;;;;5.13;3.47;;;10.80;99.90;;;;;;4996356;28;20057;-57
2022/04/24 07:38:10;;;;;;;5.80;2.97;;;10.90;99.90;;;;;;4976987;28;20473;-59
2022/04/24 07:40:39;;;;;;;5.68;3.20;;;11.00;99.90;;;;;;4981337;28;20050;-58
2022/04/24 07:43:09;;;;;;;6.35;3.25;;;11.20;99.70;;;;;;4992387;28;20045;-58
2022/04/24 07:45:37;;;;;;;4.60;3.28;;;11.30;99.30;;;;;;4971741;28;20084;-59
2022/04/24 07:48:05;;;;;;;6.80;4.38;;;11.40;99.10;;;;;;4992879;28;20054;-59
2022/04/24 07:50:41;;;;;;;8.85;4.20;;;11.50;99.00;;;;;;4966342;28;20057;-58
2022/04/24 07:53:07;;;;;;;8.57;4.30;;;11.50;98.70;;;;;;4990798;28;20400;-58
2022/04/24 07:55:34;;;;;;;6.40;4.18;;;11.60;98.60;;;;;;4975836;28;20060;-58
2022/04/24 07:58:00;;;;;;;6.88;3.50;;;11.60;98.20;;;;;;4973076;28;20046;-60
2022/04/24 08:00:28;;;;;;;8.93;3.90;;;11.70;98.00;;;;;;4985119;28;20500;-57
2022/04/24 08:03:05;;;;;;;7.82;4.35;;;11.80;98.20;;;;;;4957161;28;20112;-58
2022/04/24 08:05:32;;;;;;;9.13;3.97;;;11.90;97.60;;;;;;4968041;28;20133;-60
2022/04/24 08:08:03;;;;;;;7.30;4.30;;;11.90;97.50;;;;;;4985120;28;20042;-61
2022/04/24 08:10:31;;;;;;;7.43;3.90;;;12.00;97.10;;;;;;4969463;28;20073;-59
2022/04/24 08:12:57;;;;;;;7.25;4.03;;;12.10;97.10;;;;;;4984030;28;20084;-60
2022/04/24 08:15:23;;;;;;;8.10;4.20;;;12.20;97.00;;;;;;4986003;28;20073;-59
2022/04/24 08:17:49;;;;;;;7.72;4.07;;;12.20;96.10;;;;;;4969728;28;20121;-59
2022/04/24 08:20:17;;;;;;;6.28;3.60;;;12.30;95.90;;;;;;4985871;28;20039;-59
2022/04/24 08:22:47;;;;;;;7.28;3.80;;;12.40;95.70;;;;;;4967411;28;20046;-59
2022/04/24 08:25:16;;;;;;;7.43;3.95;;;12.40;94.70;;;;;;4967160;28;20112;-59
2022/04/24 08:27:42;;;;;;;7.18;3.50;;;12.50;94.20;;;;;;4974593;28;20495;-59
2022/04/24 08:30:10;;;;;;;8.20;3.88;;;12.60;93.70;;;;;;4967877;28;20055;-60
2022/04/24 08:32:36;;;;;;;7.97;4.25;;;12.60;93.50;;;;;;4968571;28;20085;-58
2022/04/24 08:35:04;;;;;;;8.10;3.67;;;12.80;93.60;;;;;;4968750;28;20046;-59
2022/04/24 08:37:30;;;;;;;5.82;3.70;;;12.90;93.30;;;;;;4981532;28;20405;-61
2022/04/24 08:39:56;;;;;;;6.10;3.65;;;12.90;92.90;;;;;;4970376;28;20038;-60
2022/04/24 08:42:22;;;;;;;6.50;3.25;;;13.00;92.40;;;;;;4963584;28;20400;-60
2022/04/24 08:44:49;;;;;;;7.60;3.75;;;13.10;92.10;;;;;;4967380;28;20050;-58
2022/04/24 08:47:16;;;;;;;8.80;4.15;;;13.20;92.40;;;;;;4961881;28;20062;-60
2022/04/24 08:49:42;;;;;;;6.88;4.50;;;13.30;91.80;;;;;;4958004;28;20629;-59
2022/04/24 08:52:14;;;;;;;7.32;3.88;;;13.40;91.60;;;;;;4940474;28;20131;-60
2022/04/24 08:54:41;;;;;;;6.47;3.70;;;13.40;91.50;;;;;;4965891;28;20049;-58
2022/04/24 08:57:11;;;;;;;8.05;4.40;;;13.40;90.70;;;;;;4969046;28;20080;-60
2022/04/24 08:59:37;;;;;;;6.47;3.72;;;13.50;90.90;;;;;;4968263;28;20065;-58
2022/04/24 09:02:05;;;;;;;6.55;3.78;;;13.50;90.70;;;;;;4971977;28;20050;-58
2022/04/24 09:04:32;;;;;;;5.97;4.22;;;13.70;90.20;;;;;;4951947;28;20092;-59
2022/04/24 09:07:00;;;;;;;6.20;4.10;;;13.70;89.70;;;;;;4967803;28;20529;-58
2022/04/24 09:09:27;;;;;;;5.47;3.83;;;13.80;89.20;;;;;;4958717;28;20092;-60
2022/04/24 09:11:53;;;;;;;7.13;4.07;;;13.90;89.00;;;;;;4965090;28;20042;-60
2022/04/24 09:14:19;;;;;;;6.32;4.00;;;14.00;87.70;;;;;;4968479;28;20045;-59
2022/04/24 09:16:48;;;;;;;7.15;4.25;;;14.00;86.40;;;;;;4950986;28;20047;-61
2022/04/24 09:19:25;;;;;;;5.95;3.83;;;14.00;86.20;;;;;;4971034;28;20203;-59
2022/04/24 09:21:53;;;;;;;9.93;3.88;;;14.10;85.20;;;;;;4974790;28;20054;-59
2022/04/24 09:24:19;;;;;;;8.00;3.97;;;14.10;85.30;;;;;;4965804;28;20045;-60
2022/04/24 09:26:56;;;;;;;4.97;3.53;;;14.20;84.60;;;;;;4968740;28;20052;-59
2022/04/24 09:29:23;;;;;;;8.65;3.67;;;14.20;83.80;;;;;;4940754;28;20202;-60
2022/04/24 09:31:50;;;;;;;8.50;3.70;;;14.30;82.50;;;;;;4983961;28;20053;-61
2022/04/24 09:34:18;;;;;;;5.03;3.45;;;14.30;82.50;;;;;;4955227;28;20074;-59
2022/04/24 09:36:45;;;;;;;6.72;2.85;;;14.40;82.60;;;;;;4971954;28;20042;-59
2022/04/24 09:39:12;;;;;;;5.50;3.17;;;14.50;80.80;;;;;;4970146;28;20042;-61
2022/04/24 09:41:39;;;;;;;7.57;3.70;;;14.60;79.60;;;;;;4983225;28;20101;-58
2022/04/24 09:44:13;;;;;;;4.63;2.83;;;14.70;78.40;;;;;;4989513;28;20049;-58
2022/04/24 09:46:39;;;;;;;7.55;3.20;;;14.80;77.00;;;;;;4973564;28;20194;-59
2022/04/24 09:49:08;;;;;;;11.80;3.00;;;14.80;76.20;;;;;;4982213;28;20046;-59
2022/04/24 09:51:42;;;;;;;7.68;3.50;;;14.90;77.20;;;;;;4976550;28;20501;-59
2022/04/24 09:54:09;;;;;;;6.63;3.50;;;15.00;77.10;;;;;;4967419;28;20120;-59
2022/04/24 09:56:37;;;;;;;7.38;3.50;;;15.10;77.10;;;;;;4986176;28;20833;-59
2022/04/24 09:59:04;;;;;;;7.55;3.60;;;15.20;77.00;;;;;;4990212;28;20357;-59
2022/04/24 10:01:32;;;;;;;5.63;3.00;;;15.30;77.20;;;;;;4989515;28;20172;-60
2022/04/24 10:03:58;;;;;;;15.20;3.60;;;15.40;76.70;;;;;;4946982;28;20053;-60
2022/04/24 10:06:24;;;;;;;7.35;3.35;;;15.60;75.90;;;;;;4968360;28;20555;-61
2022/04/24 10:08:51;;;;;;;6.55;3.40;;;15.60;75.90;;;;;;4987009;28;20135;-59
2022/04/24 10:11:18;;;;;;;5.47;3.20;;;15.60;75.90;;;;;;4964863;28;20408;-61
2022/04/24 10:13:46;;;;;;;6.00;2.88;;;15.60;75.10;;;;;;4985852;28;20243;-60
2022/04/24 10:16:42;;;;;;;6.50;3.30;;;15.60;75.00;;;;;;4982192;28;20046;-59
2022/04/24 10:19:27;;;;;;;5.28;3.25;;;15.70;75.10;;;;;;4973059;28;20050;-60
2022/04/24 10:22:23;;;;;;;8.75;3.10;;;15.80;74.40;;;;;;4966282;28;20061;-60
2022/04/24 10:25:00;;;;;;;6.32;3.40;;;15.80;73.10;;;;;;4972358;28;20473;-59
2022/04/24 10:27:46;;;;;;;8.73;3.33;;;15.90;74.30;;;;;;4971464;28;20050;-60
2022/04/24 10:30:23;;;;;;;6.10;3.40;;;16.00;73.80;;;;;;4988034;28;20092;-59
2022/04/24 10:33:12;;;;;;;3.67;2.80;;;16.10;74.00;;;;;;4989672;28;20103;-59
2022/04/24 10:35:54;;;;;;;5.03;2.83;;;16.20;72.70;;;;;;4975371;28;20052;-59
2022/04/24 10:38:22;;;;;;;8.68;3.35;;;16.40;72.10;;;;;;4974091;28;20172;-61
2022/04/24 10:41:03;;;;;;;4.93;2.85;;;16.30;71.20;;;;;;4975636;28;20053;-59
2022/04/24 10:43:46;;;;;;;3.85;2.80;;;16.30;70.30;;;;;;4987545;28;20077;-60
2022/04/24 10:46:16;;;;;;;;;;;16.30;69.40;;;;;;4986685;28;20049;-59
2022/04/24 10:48:41;;;;;;;5.85;3.28;;;16.30;69.90;;;;;;4988755;28;19925;-58
2022/04/24 10:51:07;;;;;;;4.82;3.10;;;16.40;70.50;;;;;;4953678;28;20042;-60
2022/04/24 10:53:56;;;;;;;4.53;2.67;;;16.50;69.70;;;;;;4960314;28;20497;-61
2022/04/24 10:56:22;;;;;;;6.10;2.97;;;16.50;69.60;;;;;;4992901;28;20049;-60
2022/04/24 10:58:50;;;;;;;4.95;3.10;;;16.50;68.10;;;;;;4978287;28;20038;-59
2022/04/24 11:01:16;;;;;;;9.60;3.20;;;16.50;68.80;;;;;;4977895;28;20077;-60
2022/04/24 11:03:44;;;;;;;6.40;3.60;;;16.50;69.30;;;;;;4976414;28;20436;-59
2022/04/24 11:06:19;;;;;;;8.25;3.80;;;16.60;70.70;;;;;;4976934;28;20050;-63
2022/04/24 11:08:45;;;;;;;6.72;3.90;;;16.70;71.80;;;;;;4979630;28;20058;-61
2022/04/24 11:11:15;;;;;;;8.02;3.55;;;16.70;71.60;;;;;;4989868;28;20673;-60
2022/04/24 11:13:42;;;;;;;10.32;4.07;;;16.60;71.20;;;;;;4978294;28;20100;-59
2022/04/24 11:16:09;;;;;;;7.55;4.10;;;16.60;71.30;;;;;;4992151;28;20053;-60
2022/04/24 11:18:36;;;;;;;7.22;4.05;;;16.60;72.20;;;;;;4971612;28;20052;-61
2022/04/24 11:21:07;;;;;;;12.93;3.75;;;16.80;72.60;;;;;;4974952;28;20182;-61
2022/04/24 11:23:37;;;;;;;8.38;3.90;;;16.70;71.50;;;;;;4971071;28;20051;-60
2022/04/24 11:26:08;;;;;;;12.82;4.70;;;16.70;71.00;;;;;;4973134;28;20038;-60
2022/04/24 11:28:37;;;;;;;8.57;4.28;;;16.70;72.90;;;;;;4964118;28;20046;-60
2022/04/24 11:31:08;;;;;;;10.90;4.40;;;16.60;72.50;;;;;;4996329;28;20054;-59
2022/04/24 11:33:48;;;;;;;13.35;4.80;;;16.60;72.40;;;;;;4980495;28;20046;-59
2022/04/24 11:36:14;;;;;;;11.80;4.65;;;16.50;72.90;;;;;;4957469;28;20050;-60
2022/04/24 11:38:40;;;;;;;7.35;4.70;;;16.60;73.30;;;;;;4981142;28;20052;-60
2022/04/24 11:41:07;;;;;;;9.15;4.55;;;16.60;73.60;;;;;;4976885;28;21015;-59
2022/04/24 11:43:39;;;;;;;11.65;5.00;;;16.60;73.10;;;;;;4973363;28;20472;-61
2022/04/24 11:51:34;;;;;;;9.98;4.70;;;16.50;73.20;;;;;;4985698;28;21019;-59
2022/04/24 11:54:00;;;;;;;9.27;4.43;;;16.40;72.30;;;;;;4993533;28;20164;-60
2022/04/24 11:56:27;;;;;;;9.35;4.20;;;16.50;73.10;;;;;;4983977;28;20077;-61
2022/04/24 11:59:14;;;;;;;8.23;4.82;;;16.50;72.60;;;;;;4992068;28;20108;-62
2022/04/24 12:01:40;;;;;;;7.85;5.05;;;16.60;72.20;;;;;;4979918;28;20163;-60
2022/04/24 12:04:06;;;;;;;9.18;4.72;;;16.60;72.40;;;;;;4930276;28;20053;-59
2022/04/24 12:06:33;;;;;;;9.15;4.07;;;16.60;72.20;;;;;;4961690;28;20155;-62
2022/04/24 12:09:07;;;;;;;10.52;4.50;;;16.70;72.30;;;;;;4949079;28;20129;-59
2022/04/24 12:11:35;;;;;;;7.80;4.40;;;16.70;71.90;;;;;;4976261;28;20050;-61
2022/04/24 12:14:08;;;;;;;11.50;4.72;;;16.70;71.70;;;;;;4988966;28;20492;-60
2022/04/24 12:16:34;;;;;;;;;;;16.70;72.50;;;;;;4970699;28;20516;-59
2022/04/24 12:19:01;;;;;;;6.95;4.22;;;16.80;72.10;;;;;;4973481;28;19961;-61
2022/04/24 12:21:31;;;;;;;9.50;4.63;;;16.80;71.30;;;;;;4981608;28;20042;-59
2022/04/24 12:23:58;;;;;;;10.98;4.88;;;16.80;71.60;;;;;;4982676;28;20054;-60
2022/04/24 12:26:25;;;;;;;9.75;5.38;;;16.90;72.20;;;;;;4958849;28;20893;-62
2022/04/24 12:28:50;;;;;;;7.88;5.03;;;17.00;72.70;;;;;;4964597;28;20521;-61
2022/04/24 12:31:27;;;;;;;8.60;5.10;;;17.10;72.50;;;;;;4979571;28;20141;-60
2022/04/24 12:33:55;;;;;;;10.10;4.70;;;17.20;72.40;;;;;;4954498;28;20048;-62
2022/04/24 12:36:22;;;;;;;9.10;4.50;;;17.30;72.20;;;;;;4963580;28;20053;-60
2022/04/24 12:39:06;;;;;;;10.95;4.80;;;17.20;71.70;;;;;;4961732;28;20093;-60
2022/04/24 12:41:33;;;;;;;11.15;4.43;;;17.30;71.00;;;;;;4947038;28;20050;-62
2022/04/24 12:44:01;;;;;;;6.05;4.25;;;17.30;71.40;;;;;;4964224;28;20050;-61
2022/04/24 12:46:27;;;;;;;13.88;4.28;;;17.40;70.40;;;;;;4983266;28;20488;-61
2022/04/24 12:48:54;;;;;;;15.82;4.88;;;17.40;70.50;;;;;;4944590;28;20115;-62
2022/04/24 12:51:23;;;;;;;9.15;4.50;;;17.40;70.60;;;;;;4963719;28;20168;-60
2022/04/24 12:53:53;;;;;;;13.05;4.80;;;17.30;70.10;;;;;;4958155;28;20144;-61